sensor_id;sensor_type;location;lat;lon;timestamp;temperature;humidity
816;DHT22;25928;51.062;13.752;2022-10-31T00:00:57;13.30;1.00
816;DHT22;25928;51.062;13.752;2022-10-31T00:03:23;13.40;1.00
816;DHT22;25928;51.062;13.752;2022-10-31T00:05:50;13.30;1.00
816;DHT22;25928;51.062;13.752;2022-10-31T00:08:16;13.30;1.00
816;DHT22;25928;51.062;13.752;2022-10-31T00:10:43;13.30;1.00
816;DHT22;25928;51.062;13.752;2022-10-31T00:13:11;13.30;1.00
816;DHT22;25928;51.062;13.752;2022-10-31T00:15:38;13.20;1.00
816;DHT22;25928;51.062;13.752;2022-10-31T00:18:04;13.20;1.00
816;DHT22;25928;51.062;13.752;2022-10-31T00:20:31;13.20;1.00
816;DHT22;25928;51.062;13.752;2022-10-31T00:23:04;13.20;1.00
816;DHT22;25928;51.062;13.752;2022-10-31T00:25:34;13.20;1.00
816;DHT22;25928;51.062;13.752;2022-10-31T00:28:01;11.10;1.00
816;DHT22;25928;51.062;13.752;2022-10-31T00:30:26;13.20;1.00
816;DHT22;25928;51.062;13.752;2022-10-31T00:32:52;13.20;1.00
816;DHT22;25928;51.062;13.752;2022-10-31T00:35:17;13.00;1.00
816;DHT22;25928;51.062;13.752;2022-10-31T00:37:43;13.10;1.00
816;DHT22;25928;51.062;13.752;2022-10-31T00:40:09;13.10;1.00
816;DHT22;25928;51.062;13.752;2022-10-31T00:42:35;13.10;1.00
816;DHT22;25928;51.062;13.752;2022-10-31T00:45:00;13.10;1.00
816;DHT22;25928;51.062;13.752;2022-10-31T00:47:26;13.10;1.00
816;DHT22;25928;51.062;13.752;2022-10-31T00:49:52;13.10;1.00
816;DHT22;25928;51.062;13.752;2022-10-31T00:52:18;13.10;1.00
816;DHT22;25928;51.062;13.752;2022-10-31T00:54:44;13.10;1.00
816;DHT22;25928;51.062;13.752;2022-10-31T00:59:35;13.10;1.00
816;DHT22;25928;51.062;13.752;2022-10-31T01:02:01;13.10;1.00
816;DHT22;25928;51.062;13.752;2022-10-31T01:04:26;13.00;1.00
816;DHT22;25928;51.062;13.752;2022-10-31T01:06:52;12.90;1.00
816;DHT22;25928;51.062;13.752;2022-10-31T01:09:17;12.90;1.00
816;DHT22;25928;51.062;13.752;2022-10-31T01:14:09;12.90;1.00
816;DHT22;25928;51.062;13.752;2022-10-31T01:16:35;12.90;1.00
816;DHT22;25928;51.062;13.752;2022-10-31T01:19:01;12.80;1.00
816;DHT22;25928;51.062;13.752;2022-10-31T01:21:28;12.80;1.00
816;DHT22;25928;51.062;13.752;2022-10-31T01:23:55;12.80;1.00
816;DHT22;25928;51.062;13.752;2022-10-31T01:26:26;12.80;1.00
816;DHT22;25928;51.062;13.752;2022-10-31T01:28:53;12.80;1.00
816;DHT22;25928;51.062;13.752;2022-10-31T01:31:20;12.80;1.00
816;DHT22;25928;51.062;13.752;2022-10-31T01:33:46;12.80;1.00
816;DHT22;25928;51.062;13.752;2022-10-31T01:36:19;12.80;1.00
816;DHT22;25928;51.062;13.752;2022-10-31T01:38:46;12.80;1.00
816;DHT22;25928;51.062;13.752;2022-10-31T01:41:16;12.80;1.00
816;DHT22;25928;51.062;13.752;2022-10-31T01:43:51;12.70;1.00
816;DHT22;25928;51.062;13.752;2022-10-31T01:46:42;12.70;1.00
816;DHT22;25928;51.062;13.752;2022-10-31T01:49:17;12.70;1.00
816;DHT22;25928;51.062;13.752;2022-10-31T01:51:53;12.70;1.00
816;DHT22;25928;51.062;13.752;2022-10-31T01:54:22;12.70;1.00
816;DHT22;25928;51.062;13.752;2022-10-31T01:56:51;12.60;1.00
816;DHT22;25928;51.062;13.752;2022-10-31T01:59:19;12.70;1.00
816;DHT22;25928;51.062;13.752;2022-10-31T02:01:47;12.60;1.00
816;DHT22;25928;51.062;13.752;2022-10-31T02:04:15;12.60;1.00
816;DHT22;25928;51.062;13.752;2022-10-31T02:06:55;12.50;1.00
816;DHT22;25928;51.062;13.752;2022-10-31T02:09:23;12.60;1.00
816;DHT22;25928;51.062;13.752;2022-10-31T02:11:55;12.50;1.00
816;DHT22;25928;51.062;13.752;2022-10-31T02:14:23;12.60;1.00
816;DHT22;25928;51.062;13.752;2022-10-31T02:16:50;12.60;1.00
816;DHT22;25928;51.062;13.752;2022-10-31T02:19:21;12.60;1.00
816;DHT22;25928;51.062;13.752;2022-10-31T02:21:56;12.60;1.00
816;DHT22;25928;51.062;13.752;2022-10-31T02:30:10;12.50;1.00
816;DHT22;25928;51.062;13.752;2022-10-31T02:32:46;12.50;1.00
816;DHT22;25928;51.062;13.752;2022-10-31T02:40:51;12.50;1.00
816;DHT22;25928;51.062;13.752;2022-10-31T02:48:28;12.40;1.00
816;DHT22;25928;51.062;13.752;2022-10-31T02:51:01;12.40;1.00
816;DHT22;25928;51.062;13.752;2022-10-31T02:53:33;12.30;1.00
816;DHT22;25928;51.062;13.752;2022-10-31T02:56:04;12.40;1.00
816;DHT22;25928;51.062;13.752;2022-10-31T02:58:34;12.40;1.00
816;DHT22;25928;51.062;13.752;2022-10-31T03:09:52;12.30;1.00
816;DHT22;25928;51.062;13.752;2022-10-31T03:12:28;12.40;1.00
816;DHT22;25928;51.062;13.752;2022-10-31T03:18:29;12.20;1.00
816;DHT22;25928;51.062;13.752;2022-10-31T03:21:03;12.30;1.00
816;DHT22;25928;51.062;13.752;2022-10-31T03:23:31;12.30;1.00
816;DHT22;25928;51.062;13.752;2022-10-31T03:26:01;12.20;1.00
816;DHT22;25928;51.062;13.752;2022-10-31T03:28:33;12.20;1.00
816;DHT22;25928;51.062;13.752;2022-10-31T03:31:01;12.20;1.00
816;DHT22;25928;51.062;13.752;2022-10-31T03:33:31;12.20;1.00
816;DHT22;25928;51.062;13.752;2022-10-31T03:36:01;12.20;1.00
816;DHT22;25928;51.062;13.752;2022-10-31T03:38:28;12.10;1.00
816;DHT22;25928;51.062;13.752;2022-10-31T03:40:56;12.10;1.00
816;DHT22;25928;51.062;13.752;2022-10-31T03:43:27;12.10;1.00
816;DHT22;25928;51.062;13.752;2022-10-31T03:45:53;12.00;1.00
816;DHT22;25928;51.062;13.752;2022-10-31T03:48:20;12.00;1.00
816;DHT22;25928;51.062;13.752;2022-10-31T03:53:26;12.00;1.00
816;DHT22;25928;51.062;13.752;2022-10-31T03:56:05;11.90;1.00
816;DHT22;25928;51.062;13.752;2022-10-31T03:58:38;11.90;1.00
816;DHT22;25928;51.062;13.752;2022-10-31T04:01:06;11.90;1.00
816;DHT22;25928;51.062;13.752;2022-10-31T04:03:36;11.90;1.00
816;DHT22;25928;51.062;13.752;2022-10-31T04:06:06;11.80;1.00
816;DHT22;25928;51.062;13.752;2022-10-31T04:08:38;11.80;1.00
816;DHT22;25928;51.062;13.752;2022-10-31T04:11:06;11.90;1.00
816;DHT22;25928;51.062;13.752;2022-10-31T04:13:35;11.90;1.00
816;DHT22;25928;51.062;13.752;2022-10-31T04:16:02;11.80;1.00
816;DHT22;25928;51.062;13.752;2022-10-31T04:18:28;11.80;1.00
816;DHT22;25928;51.062;13.752;2022-10-31T04:21:02;11.90;1.00
816;DHT22;25928;51.062;13.752;2022-10-31T04:23:28;11.80;1.00
816;DHT22;25928;51.062;13.752;2022-10-31T04:25:54;11.80;1.00
816;DHT22;25928;51.062;13.752;2022-10-31T04:28:20;11.90;1.00
816;DHT22;25928;51.062;13.752;2022-10-31T04:30:45;11.80;1.00
816;DHT22;25928;51.062;13.752;2022-10-31T04:33:11;11.80;1.00
816;DHT22;25928;51.062;13.752;2022-10-31T04:35:36;11.70;1.00
816;DHT22;25928;51.062;13.752;2022-10-31T04:38:02;11.70;1.00
816;DHT22;25928;51.062;13.752;2022-10-31T04:40:28;11.80;1.00
816;DHT22;25928;51.062;13.752;2022-10-31T04:42:53;11.70;1.00
816;DHT22;25928;51.062;13.752;2022-10-31T04:45:19;11.70;1.00
816;DHT22;25928;51.062;13.752;2022-10-31T04:47:44;11.70;1.00
816;DHT22;25928;51.062;13.752;2022-10-31T04:50:10;11.70;1.00
816;DHT22;25928;51.062;13.752;2022-10-31T04:52:40;11.60;1.00
816;DHT22;25928;51.062;13.752;2022-10-31T04:55:06;11.60;1.00
816;DHT22;25928;51.062;13.752;2022-10-31T04:57:32;11.60;1.00
816;DHT22;25928;51.062;13.752;2022-10-31T04:59:57;11.70;1.00
816;DHT22;25928;51.062;13.752;2022-10-31T05:02:23;11.70;1.00
816;DHT22;25928;51.062;13.752;2022-10-31T05:04:49;11.60;1.00
816;DHT22;25928;51.062;13.752;2022-10-31T05:07:14;11.50;1.00
816;DHT22;25928;51.062;13.752;2022-10-31T05:09:40;11.50;1.00
816;DHT22;25928;51.062;13.752;2022-10-31T05:12:05;11.60;1.00
816;DHT22;25928;51.062;13.752;2022-10-31T05:16:57;11.50;1.00
816;DHT22;25928;51.062;13.752;2022-10-31T05:19:22;11.50;1.00
816;DHT22;25928;51.062;13.752;2022-10-31T05:21:48;11.60;1.00
816;DHT22;25928;51.062;13.752;2022-10-31T05:26:39;11.50;1.00
816;DHT22;25928;51.062;13.752;2022-10-31T05:29:05;11.50;1.00
816;DHT22;25928;51.062;13.752;2022-10-31T05:31:30;11.50;1.00
816;DHT22;25928;51.062;13.752;2022-10-31T05:33:56;11.40;1.00
816;DHT22;25928;51.062;13.752;2022-10-31T05:36:21;11.50;1.00
816;DHT22;25928;51.062;13.752;2022-10-31T05:38:47;11.40;1.00
816;DHT22;25928;51.062;13.752;2022-10-31T05:41:12;11.40;1.00
816;DHT22;25928;51.062;13.752;2022-10-31T05:43:38;11.40;1.00
816;DHT22;25928;51.062;13.752;2022-10-31T05:46:04;11.40;1.00
816;DHT22;25928;51.062;13.752;2022-10-31T05:48:29;11.40;1.00
816;DHT22;25928;51.062;13.752;2022-10-31T05:50:55;11.30;1.00
816;DHT22;25928;51.062;13.752;2022-10-31T05:53:20;11.30;1.00
816;DHT22;25928;51.062;13.752;2022-10-31T05:55:46;11.30;1.00
816;DHT22;25928;51.062;13.752;2022-10-31T05:58:12;11.30;1.00
816;DHT22;25928;51.062;13.752;2022-10-31T06:00:37;11.20;1.00
816;DHT22;25928;51.062;13.752;2022-10-31T06:03:08;11.30;1.00
816;DHT22;25928;51.062;13.752;2022-10-31T06:05:34;11.30;1.00
816;DHT22;25928;51.062;13.752;2022-10-31T06:08:00;11.30;1.00
816;DHT22;25928;51.062;13.752;2022-10-31T06:10:26;11.30;1.00
816;DHT22;25928;51.062;13.752;2022-10-31T06:12:52;11.30;1.00
816;DHT22;25928;51.062;13.752;2022-10-31T06:15:17;11.30;1.00
816;DHT22;25928;51.062;13.752;2022-10-31T06:17:43;11.30;1.00
816;DHT22;25928;51.062;13.752;2022-10-31T06:20:09;11.40;1.00
816;DHT22;25928;51.062;13.752;2022-10-31T06:22:35;11.30;1.00
816;DHT22;25928;51.062;13.752;2022-10-31T06:25:01;11.30;1.00
816;DHT22;25928;51.062;13.752;2022-10-31T06:27:26;11.30;1.00
816;DHT22;25928;51.062;13.752;2022-10-31T06:29:52;11.40;1.00
816;DHT22;25928;51.062;13.752;2022-10-31T06:34:44;11.40;1.00
816;DHT22;25928;51.062;13.752;2022-10-31T06:37:13;11.40;1.00
816;DHT22;25928;51.062;13.752;2022-10-31T06:39:39;11.50;1.00
816;DHT22;25928;51.062;13.752;2022-10-31T06:42:05;11.50;1.00
816;DHT22;25928;51.062;13.752;2022-10-31T06:44:30;11.50;1.00
816;DHT22;25928;51.062;13.752;2022-10-31T06:46:59;11.50;1.00
816;DHT22;25928;51.062;13.752;2022-10-31T06:49:25;11.50;1.00
816;DHT22;25928;51.062;13.752;2022-10-31T06:51:50;11.60;1.00
816;DHT22;25928;51.062;13.752;2022-10-31T06:54:16;11.60;1.00
816;DHT22;25928;51.062;13.752;2022-10-31T06:56:42;11.70;1.00
816;DHT22;25928;51.062;13.752;2022-10-31T06:59:07;11.70;1.00
816;DHT22;25928;51.062;13.752;2022-10-31T07:01:33;11.70;1.00
816;DHT22;25928;51.062;13.752;2022-10-31T07:03:59;11.80;1.00
816;DHT22;25928;51.062;13.752;2022-10-31T07:06:24;11.80;1.00
816;DHT22;25928;51.062;13.752;2022-10-31T07:08:50;11.90;1.00
816;DHT22;25928;51.062;13.752;2022-10-31T07:11:16;12.00;1.00
816;DHT22;25928;51.062;13.752;2022-10-31T07:13:41;11.90;1.00
816;DHT22;25928;51.062;13.752;2022-10-31T07:16:07;12.00;1.00
816;DHT22;25928;51.062;13.752;2022-10-31T07:18:33;12.00;1.00
816;DHT22;25928;51.062;13.752;2022-10-31T07:20:59;12.00;1.00
816;DHT22;25928;51.062;13.752;2022-10-31T07:23:24;12.10;1.00
816;DHT22;25928;51.062;13.752;2022-10-31T07:25:55;12.20;1.00
816;DHT22;25928;51.062;13.752;2022-10-31T07:28:21;12.20;1.00
816;DHT22;25928;51.062;13.752;2022-10-31T07:30:51;12.20;1.00
816;DHT22;25928;51.062;13.752;2022-10-31T07:33:16;12.30;1.00
816;DHT22;25928;51.062;13.752;2022-10-31T07:35:42;12.40;1.00
816;DHT22;25928;51.062;13.752;2022-10-31T07:38:12;12.50;1.00
816;DHT22;25928;51.062;13.752;2022-10-31T07:40:38;12.50;1.00
816;DHT22;25928;51.062;13.752;2022-10-31T07:43:04;12.60;1.00
816;DHT22;25928;51.062;13.752;2022-10-31T07:47:55;12.80;1.00
816;DHT22;25928;51.062;13.752;2022-10-31T07:50:26;12.80;1.00
816;DHT22;25928;51.062;13.752;2022-10-31T07:53:06;12.90;1.00
816;DHT22;25928;51.062;13.752;2022-10-31T07:55:32;13.10;1.00
816;DHT22;25928;51.062;13.752;2022-10-31T07:58:05;13.10;1.00
816;DHT22;25928;51.062;13.752;2022-10-31T08:00:32;13.30;1.00
816;DHT22;25928;51.062;13.752;2022-10-31T08:05:28;13.40;1.00
816;DHT22;25928;51.062;13.752;2022-10-31T08:07:54;13.50;1.00
816;DHT22;25928;51.062;13.752;2022-10-31T08:10:20;13.60;1.00
816;DHT22;25928;51.062;13.752;2022-10-31T08:12:47;13.70;1.00
816;DHT22;25928;51.062;13.752;2022-10-31T08:15:13;13.90;1.00
816;DHT22;25928;51.062;13.752;2022-10-31T08:17:38;14.00;1.00
816;DHT22;25928;51.062;13.752;2022-10-31T08:20:05;14.20;1.00
816;DHT22;25928;51.062;13.752;2022-10-31T08:22:31;14.60;1.00
816;DHT22;25928;51.062;13.752;2022-10-31T08:24:56;15.00;1.00
816;DHT22;25928;51.062;13.752;2022-10-31T08:27:22;15.50;1.00
816;DHT22;25928;51.062;13.752;2022-10-31T08:32:14;15.80;1.00
816;DHT22;25928;51.062;13.752;2022-10-31T08:34:39;15.90;1.00
816;DHT22;25928;51.062;13.752;2022-10-31T08:41:57;15.70;1.00
816;DHT22;25928;51.062;13.752;2022-10-31T08:44:24;15.50;1.00
816;DHT22;25928;51.062;13.752;2022-10-31T08:46:49;15.50;1.00
816;DHT22;25928;51.062;13.752;2022-10-31T08:49:15;15.50;1.00
816;DHT22;25928;51.062;13.752;2022-10-31T08:51:40;15.60;1.00
816;DHT22;25928;51.062;13.752;2022-10-31T08:54:06;15.70;1.00
816;DHT22;25928;51.062;13.752;2022-10-31T08:56:31;15.60;1.00
816;DHT22;25928;51.062;13.752;2022-10-31T08:58:57;15.60;1.00
816;DHT22;25928;51.062;13.752;2022-10-31T09:01:23;15.70;1.00
816;DHT22;25928;51.062;13.752;2022-10-31T09:03:48;15.80;1.00
816;DHT22;25928;51.062;13.752;2022-10-31T09:06:14;16.00;1.00
816;DHT22;25928;51.062;13.752;2022-10-31T09:08:39;16.10;1.00
816;DHT22;25928;51.062;13.752;2022-10-31T09:11:05;16.10;1.00
816;DHT22;25928;51.062;13.752;2022-10-31T09:13:32;16.20;1.00
816;DHT22;25928;51.062;13.752;2022-10-31T09:15:57;16.20;1.00
816;DHT22;25928;51.062;13.752;2022-10-31T09:18:26;16.30;1.00
816;DHT22;25928;51.062;13.752;2022-10-31T09:20:57;16.60;1.00
816;DHT22;25928;51.062;13.752;2022-10-31T09:23:23;16.80;1.00
816;DHT22;25928;51.062;13.752;2022-10-31T09:25:50;16.80;1.00
816;DHT22;25928;51.062;13.752;2022-10-31T09:28:19;16.90;1.00
816;DHT22;25928;51.062;13.752;2022-10-31T09:30:47;17.00;1.00
816;DHT22;25928;51.062;13.752;2022-10-31T09:33:13;17.10;1.00
816;DHT22;25928;51.062;13.752;2022-10-31T09:35:40;17.30;1.00
816;DHT22;25928;51.062;13.752;2022-10-31T09:38:11;17.40;1.00
816;DHT22;25928;51.062;13.752;2022-10-31T09:40:43;17.40;1.00
816;DHT22;25928;51.062;13.752;2022-10-31T09:43:17;17.40;1.00
816;DHT22;25928;51.062;13.752;2022-10-31T09:51:08;17.80;1.00
816;DHT22;25928;51.062;13.752;2022-10-31T09:56:07;18.00;1.00
816;DHT22;25928;51.062;13.752;2022-10-31T09:58:50;18.20;1.00
816;DHT22;25928;51.062;13.752;2022-10-31T10:04:30;18.30;1.00
816;DHT22;25928;51.062;13.752;2022-10-31T10:06:57;18.40;1.00
816;DHT22;25928;51.062;13.752;2022-10-31T10:09:26;18.40;1.00
816;DHT22;25928;51.062;13.752;2022-10-31T10:12:48;18.50;1.00
816;DHT22;25928;51.062;13.752;2022-10-31T10:17:54;18.60;1.00
816;DHT22;25928;51.062;13.752;2022-10-31T10:20:43;18.80;1.00
816;DHT22;25928;51.062;13.752;2022-10-31T10:25:46;19.00;1.00
816;DHT22;25928;51.062;13.752;2022-10-31T10:31:08;19.10;1.00
816;DHT22;25928;51.062;13.752;2022-10-31T10:33:43;19.50;1.00
816;DHT22;25928;51.062;13.752;2022-10-31T10:36:21;19.50;1.00
816;DHT22;25928;51.062;13.752;2022-10-31T10:39:02;19.70;1.00
816;DHT22;25928;51.062;13.752;2022-10-31T10:41:32;19.90;1.00
816;DHT22;25928;51.062;13.752;2022-10-31T10:43:58;20.00;1.00
816;DHT22;25928;51.062;13.752;2022-10-31T10:46:48;20.10;1.00
816;DHT22;25928;51.062;13.752;2022-10-31T10:49:51;20.10;1.00
816;DHT22;25928;51.062;13.752;2022-10-31T10:52:35;20.10;1.00
816;DHT22;25928;51.062;13.752;2022-10-31T10:55:56;20.10;1.00
816;DHT22;25928;51.062;13.752;2022-10-31T10:57:58;20.10;1.00
816;DHT22;25928;51.062;13.752;2022-10-31T11:00:34;20.00;1.00
816;DHT22;25928;51.062;13.752;2022-10-31T11:03:01;19.90;1.00
816;DHT22;25928;51.062;13.752;2022-10-31T11:08:02;20.10;1.00
816;DHT22;25928;51.062;13.752;2022-10-31T11:10:28;20.30;1.00
816;DHT22;25928;51.062;13.752;2022-10-31T11:13:20;20.30;1.00
816;DHT22;25928;51.062;13.752;2022-10-31T11:16:00;20.50;1.00
816;DHT22;25928;51.062;13.752;2022-10-31T11:18:30;20.70;1.00
816;DHT22;25928;51.062;13.752;2022-10-31T11:20:59;20.90;1.00
816;DHT22;25928;51.062;13.752;2022-10-31T11:23:26;20.80;1.00
816;DHT22;25928;51.062;13.752;2022-10-31T11:25:56;20.80;1.00
816;DHT22;25928;51.062;13.752;2022-10-31T11:28:22;21.00;1.00
816;DHT22;25928;51.062;13.752;2022-10-31T11:30:56;21.00;1.00
816;DHT22;25928;51.062;13.752;2022-10-31T11:33:36;20.90;1.00
816;DHT22;25928;51.062;13.752;2022-10-31T11:36:18;20.90;1.00
816;DHT22;25928;51.062;13.752;2022-10-31T11:38:45;20.80;1.00
816;DHT22;25928;51.062;13.752;2022-10-31T11:41:24;21.00;1.00
816;DHT22;25928;51.062;13.752;2022-10-31T11:43:54;21.00;1.00
816;DHT22;25928;51.062;13.752;2022-10-31T11:46:34;21.00;1.00
816;DHT22;25928;51.062;13.752;2022-10-31T11:49:00;21.00;1.00
816;DHT22;25928;51.062;13.752;2022-10-31T11:51:33;20.90;1.00
816;DHT22;25928;51.062;13.752;2022-10-31T11:56:28;20.80;1.00
816;DHT22;25928;51.062;13.752;2022-10-31T11:59:16;20.90;1.00
816;DHT22;25928;51.062;13.752;2022-10-31T12:01:47;21.20;1.00
816;DHT22;25928;51.062;13.752;2022-10-31T12:04:14;21.20;1.00
816;DHT22;25928;51.062;13.752;2022-10-31T12:06:43;21.10;1.00
816;DHT22;25928;51.062;13.752;2022-10-31T12:15:06;21.00;1.00
816;DHT22;25928;51.062;13.752;2022-10-31T12:20:26;20.90;1.00
816;DHT22;25928;51.062;13.752;2022-10-31T12:25:41;21.00;1.00
816;DHT22;25928;51.062;13.752;2022-10-31T12:42:06;21.70;1.00
816;DHT22;25928;51.062;13.752;2022-10-31T12:44:56;21.60;1.00
816;DHT22;25928;51.062;13.752;2022-10-31T12:58:59;21.50;1.00
816;DHT22;25928;51.062;13.752;2022-10-31T13:01:45;21.50;1.00
816;DHT22;25928;51.062;13.752;2022-10-31T13:04:44;21.40;1.00
816;DHT22;25928;51.062;13.752;2022-10-31T13:10:15;21.20;1.00
816;DHT22;25928;51.062;13.752;2022-10-31T13:12:43;21.20;1.00
816;DHT22;25928;51.062;13.752;2022-10-31T13:15:23;21.20;1.00
816;DHT22;25928;51.062;13.752;2022-10-31T13:18:09;21.30;1.00
816;DHT22;25928;51.062;13.752;2022-10-31T13:20:43;21.50;1.00
816;DHT22;25928;51.062;13.752;2022-10-31T13:23:33;21.50;1.00
816;DHT22;25928;51.062;13.752;2022-10-31T13:26:05;21.60;1.00
816;DHT22;25928;51.062;13.752;2022-10-31T13:28:59;21.50;1.00
816;DHT22;25928;51.062;13.752;2022-10-31T13:31:27;21.40;1.00
816;DHT22;25928;51.062;13.752;2022-10-31T13:34:08;21.40;1.00
816;DHT22;25928;51.062;13.752;2022-10-31T13:36:45;21.30;1.00
816;DHT22;25928;51.062;13.752;2022-10-31T13:39:40;21.30;1.00
816;DHT22;25928;51.062;13.752;2022-10-31T13:42:25;21.20;1.00
816;DHT22;25928;51.062;13.752;2022-10-31T13:44:55;21.30;1.00
816;DHT22;25928;51.062;13.752;2022-10-31T13:47:25;21.30;1.00
816;DHT22;25928;51.062;13.752;2022-10-31T13:49:51;21.40;1.00
816;DHT22;25928;51.062;13.752;2022-10-31T13:52:24;21.30;1.00
816;DHT22;25928;51.062;13.752;2022-10-31T13:54:52;21.20;1.00
816;DHT22;25928;51.062;13.752;2022-10-31T13:59:58;21.40;1.00
816;DHT22;25928;51.062;13.752;2022-10-31T14:02:35;21.50;1.00
816;DHT22;25928;51.062;13.752;2022-10-31T14:05:05;21.50;1.00
816;DHT22;25928;51.062;13.752;2022-10-31T14:07:32;21.50;1.00
816;DHT22;25928;51.062;13.752;2022-10-31T14:10:07;21.30;1.00
816;DHT22;25928;51.062;13.752;2022-10-31T14:12:46;21.00;1.00
816;DHT22;25928;51.062;13.752;2022-10-31T14:15:23;21.10;1.00
816;DHT22;25928;51.062;13.752;2022-10-31T14:17:56;21.10;1.00
816;DHT22;25928;51.062;13.752;2022-10-31T14:29:01;20.60;1.00
816;DHT22;25928;51.062;13.752;2022-10-31T14:39:33;20.30;1.00
816;DHT22;25928;51.062;13.752;2022-10-31T14:42:28;20.20;1.00
816;DHT22;25928;51.062;13.752;2022-10-31T14:45:14;20.20;1.00
816;DHT22;25928;51.062;13.752;2022-10-31T14:52:49;19.70;1.00
816;DHT22;25928;51.062;13.752;2022-10-31T14:55:16;19.50;1.00
816;DHT22;25928;51.062;13.752;2022-10-31T14:58:04;19.50;1.00
816;DHT22;25928;51.062;13.752;2022-10-31T15:00:32;19.30;1.00
816;DHT22;25928;51.062;13.752;2022-10-31T15:03:04;19.30;1.00
816;DHT22;25928;51.062;13.752;2022-10-31T15:05:32;19.20;1.00
816;DHT22;25928;51.062;13.752;2022-10-31T15:08:00;19.20;1.00
816;DHT22;25928;51.062;13.752;2022-10-31T15:10:32;19.00;1.00
816;DHT22;25928;51.062;13.752;2022-10-31T15:13:17;19.10;1.00
816;DHT22;25928;51.062;13.752;2022-10-31T15:15:44;19.00;1.00
816;DHT22;25928;51.062;13.752;2022-10-31T15:19:25;19.00;1.00
816;DHT22;25928;51.062;13.752;2022-10-31T15:21:27;18.90;1.00
816;DHT22;25928;51.062;13.752;2022-10-31T15:23:58;18.80;1.00
816;DHT22;25928;51.062;13.752;2022-10-31T15:26:37;18.70;1.00
816;DHT22;25928;51.062;13.752;2022-10-31T15:29:12;18.60;1.00
816;DHT22;25928;51.062;13.752;2022-10-31T15:31:38;18.60;1.00
816;DHT22;25928;51.062;13.752;2022-10-31T15:34:14;18.50;1.00
816;DHT22;25928;51.062;13.752;2022-10-31T15:36:41;18.40;1.00
816;DHT22;25928;51.062;13.752;2022-10-31T15:39:10;18.20;1.00
816;DHT22;25928;51.062;13.752;2022-10-31T15:44:21;18.00;1.00
816;DHT22;25928;51.062;13.752;2022-10-31T15:47:06;17.90;1.00
816;DHT22;25928;51.062;13.752;2022-10-31T15:49:57;17.90;1.00
816;DHT22;25928;51.062;13.752;2022-10-31T15:52:46;17.70;1.00
816;DHT22;25928;51.062;13.752;2022-10-31T15:55:26;17.70;1.00
816;DHT22;25928;51.062;13.752;2022-10-31T15:58:00;17.70;1.00
816;DHT22;25928;51.062;13.752;2022-10-31T16:00:34;17.60;1.00
816;DHT22;25928;51.062;13.752;2022-10-31T16:05:51;17.50;1.00
816;DHT22;25928;51.062;13.752;2022-10-31T16:08:33;17.50;1.00
816;DHT22;25928;51.062;13.752;2022-10-31T16:14:13;17.40;1.00
816;DHT22;25928;51.062;13.752;2022-10-31T16:16:50;17.20;1.00
816;DHT22;25928;51.062;13.752;2022-10-31T16:19:22;17.00;1.00
816;DHT22;25928;51.062;13.752;2022-10-31T16:21:53;17.00;1.00
816;DHT22;25928;51.062;13.752;2022-10-31T16:24:28;16.90;1.00
816;DHT22;25928;51.062;13.752;2022-10-31T16:27:00;16.80;1.00
816;DHT22;25928;51.062;13.752;2022-10-31T16:32:01;17.00;1.00
816;DHT22;25928;51.062;13.752;2022-10-31T16:36:53;17.20;1.00
816;DHT22;25928;51.062;13.752;2022-10-31T16:39:19;17.10;1.00
816;DHT22;25928;51.062;13.752;2022-10-31T16:41:46;17.10;1.00
816;DHT22;25928;51.062;13.752;2022-10-31T16:44:30;17.10;1.00
816;DHT22;25928;51.062;13.752;2022-10-31T16:47:12;16.90;1.00
816;DHT22;25928;51.062;13.752;2022-10-31T16:52:05;16.70;1.00
816;DHT22;25928;51.062;13.752;2022-10-31T16:54:30;16.70;1.00
816;DHT22;25928;51.062;13.752;2022-10-31T16:56:59;16.60;1.00
816;DHT22;25928;51.062;13.752;2022-10-31T16:59:25;16.50;1.00
816;DHT22;25928;51.062;13.752;2022-10-31T17:01:51;16.50;1.00
816;DHT22;25928;51.062;13.752;2022-10-31T17:04:17;16.40;1.00
816;DHT22;25928;51.062;13.752;2022-10-31T17:06:43;16.40;1.00
816;DHT22;25928;51.062;13.752;2022-10-31T17:09:08;16.40;1.00
816;DHT22;25928;51.062;13.752;2022-10-31T17:11:34;16.30;1.00
816;DHT22;25928;51.062;13.752;2022-10-31T17:16:27;16.20;1.00
816;DHT22;25928;51.062;13.752;2022-10-31T17:18:52;16.10;1.00
816;DHT22;25928;51.062;13.752;2022-10-31T17:21:22;16.10;1.00
816;DHT22;25928;51.062;13.752;2022-10-31T17:23:49;16.10;1.00
816;DHT22;25928;51.062;13.752;2022-10-31T17:26:15;16.00;1.00
816;DHT22;25928;51.062;13.752;2022-10-31T17:28:41;16.00;1.00
816;DHT22;25928;51.062;13.752;2022-10-31T17:31:22;16.10;1.00
816;DHT22;25928;51.062;13.752;2022-10-31T17:33:48;19.20;1.00
816;DHT22;25928;51.062;13.752;2022-10-31T17:36:14;16.00;1.00
816;DHT22;25928;51.062;13.752;2022-10-31T17:38:40;16.00;1.00
816;DHT22;25928;51.062;13.752;2022-10-31T17:41:07;16.00;1.00
816;DHT22;25928;51.062;13.752;2022-10-31T17:43:32;15.90;1.00
816;DHT22;25928;51.062;13.752;2022-10-31T17:45:59;16.00;1.00
816;DHT22;25928;51.062;13.752;2022-10-31T17:48:26;15.90;1.00
816;DHT22;25928;51.062;13.752;2022-10-31T17:53:17;15.90;1.00
816;DHT22;25928;51.062;13.752;2022-10-31T17:58:09;15.90;1.00
816;DHT22;25928;51.062;13.752;2022-10-31T18:00:39;15.90;1.00
816;DHT22;25928;51.062;13.752;2022-10-31T18:03:05;15.90;1.00
816;DHT22;25928;51.062;13.752;2022-10-31T18:05:32;15.90;1.00
816;DHT22;25928;51.062;13.752;2022-10-31T18:07:57;15.90;1.00
816;DHT22;25928;51.062;13.752;2022-10-31T18:10:24;15.90;1.00
816;DHT22;25928;51.062;13.752;2022-10-31T18:12:49;15.90;1.00
816;DHT22;25928;51.062;13.752;2022-10-31T18:15:15;15.90;1.00
816;DHT22;25928;51.062;13.752;2022-10-31T18:17:41;15.90;1.00
816;DHT22;25928;51.062;13.752;2022-10-31T18:20:07;15.90;1.00
816;DHT22;25928;51.062;13.752;2022-10-31T18:22:33;15.90;1.00
816;DHT22;25928;51.062;13.752;2022-10-31T18:24:58;15.90;1.00
816;DHT22;25928;51.062;13.752;2022-10-31T18:27:24;15.90;1.00
816;DHT22;25928;51.062;13.752;2022-10-31T18:29:51;15.80;1.00
816;DHT22;25928;51.062;13.752;2022-10-31T18:32:16;15.90;1.00
816;DHT22;25928;51.062;13.752;2022-10-31T18:37:08;15.80;1.00
816;DHT22;25928;51.062;13.752;2022-10-31T18:42:00;15.70;1.00
816;DHT22;25928;51.062;13.752;2022-10-31T18:44:26;15.70;1.00
816;DHT22;25928;51.062;13.752;2022-10-31T18:46:52;15.60;1.00
816;DHT22;25928;51.062;13.752;2022-10-31T18:49:18;15.60;1.00
816;DHT22;25928;51.062;13.752;2022-10-31T18:51:50;15.60;1.00
816;DHT22;25928;51.062;13.752;2022-10-31T18:54:16;15.60;1.00
816;DHT22;25928;51.062;13.752;2022-10-31T18:56:42;15.50;1.00
816;DHT22;25928;51.062;13.752;2022-10-31T18:59:08;15.40;1.00
816;DHT22;25928;51.062;13.752;2022-10-31T19:01:34;15.40;1.00
816;DHT22;25928;51.062;13.752;2022-10-31T19:04:00;15.40;1.00
816;DHT22;25928;51.062;13.752;2022-10-31T19:06:26;15.30;1.00
816;DHT22;25928;51.062;13.752;2022-10-31T19:09:00;15.30;1.00
816;DHT22;25928;51.062;13.752;2022-10-31T19:11:31;15.30;1.00